createdAt,value
2019-04-26T00:01:51.601Z,80.50
2019-04-26T00:04:20.461Z,80.70
2019-04-26T00:06:49.719Z,80.90
2019-04-26T00:09:22.379Z,80.20
2019-04-26T00:11:52.415Z,81.00
2019-04-26T00:14:28.401Z,80.80
2019-04-26T00:16:58.440Z,80.70
2019-04-26T00:19:27.334Z,80.40
2019-04-26T00:21:56.308Z,80.10
2019-04-26T00:24:25.295Z,79.50
2019-04-26T00:26:53.671Z,79.20
2019-04-26T00:29:22.062Z,80.00
2019-04-26T00:31:50.460Z,79.30
2019-04-26T00:34:19.627Z,79.40
2019-04-26T00:36:48.226Z,80.10
2019-04-26T00:39:16.616Z,80.20
2019-04-26T00:41:45.056Z,80.00
2019-04-26T00:44:14.781Z,80.40
2019-04-26T00:46:43.810Z,81.40
2019-04-26T00:49:12.610Z,81.40
2019-04-26T00:51:42.794Z,81.50
2019-04-26T00:54:11.634Z,81.30
2019-04-26T00:56:40.054Z,81.10
2019-04-26T00:59:09.251Z,81.30
2019-04-26T01:01:39.242Z,81.40
2019-04-26T01:04:07.643Z,81.40
2019-04-26T01:06:37.684Z,81.20
2019-04-26T01:09:06.732Z,81.40
2019-04-26T01:11:35.118Z,81.90
2019-04-26T01:14:03.547Z,82.00
2019-04-26T01:16:31.957Z,81.40
2019-04-26T01:19:00.309Z,81.50
2019-04-26T01:21:32.559Z,81.70
2019-04-26T01:24:01.199Z,82.40
2019-04-26T01:26:32.374Z,82.90
2019-04-26T01:29:14.148Z,83.00
2019-04-26T01:31:54.908Z,83.10
2019-04-26T01:34:24.205Z,83.80
2019-04-26T01:36:52.696Z,84.50
2019-04-26T01:39:22.513Z,85.00
2019-04-26T01:41:55.858Z,85.60
2019-04-26T01:44:40.194Z,85.80
2019-04-26T01:47:08.583Z,86.40
2019-04-26T01:49:36.978Z,86.60
2019-04-26T01:52:11.464Z,86.70
2019-04-26T01:54:42.265Z,87.30
2019-04-26T01:57:10.707Z,87.30
2019-04-26T01:59:42.219Z,87.80
2019-04-26T02:02:12.249Z,88.00
2019-04-26T02:04:42.268Z,88.40
2019-04-26T02:07:10.667Z,88.40
2019-04-26T02:09:39.042Z,88.90
2019-04-26T02:12:07.430Z,89.40
2019-04-26T02:14:35.818Z,89.70
2019-04-26T02:17:04.208Z,89.80
2019-04-26T02:19:33.661Z,89.90
2019-04-26T02:22:20.346Z,89.70
2019-04-26T02:24:50.376Z,89.90
2019-04-26T02:29:59.556Z,90.40
2019-04-26T02:32:29.417Z,89.90
2019-04-26T02:34:58.366Z,90.10
2019-04-26T02:37:26.999Z,90.10
2019-04-26T02:39:57.227Z,89.90
2019-04-26T02:42:30.935Z,90.00
2019-04-26T02:45:22.319Z,90.00
2019-04-26T02:48:10.149Z,90.10
2019-04-26T02:50:55.276Z,90.20
2019-04-26T02:53:37.392Z,90.30
2019-04-26T02:56:23.048Z,90.30
2019-04-26T02:59:00.631Z,90.20
2019-04-26T03:01:29.957Z,90.40
2019-04-26T03:03:59.825Z,90.40
2019-04-26T03:06:30.022Z,90.50
2019-04-26T03:08:58.845Z,90.30
2019-04-26T03:11:31.526Z,90.30
2019-04-26T03:14:05.622Z,90.30
2019-04-26T03:16:39.440Z,90.10
2019-04-26T03:19:23.765Z,89.80
2019-04-26T03:22:06.643Z,89.60
2019-04-26T03:24:44.330Z,89.30
2019-04-26T03:27:28.055Z,89.00
2019-04-26T03:30:19.549Z,88.90
2019-04-26T03:32:57.032Z,88.20
2019-04-26T03:36:00.568Z,87.90
2019-04-26T03:38:51.603Z,87.80
2019-04-26T03:41:41.070Z,87.60
2019-04-26T03:44:22.343Z,87.40
2019-04-26T03:46:56.799Z,87.20
2019-04-26T03:49:45.892Z,87.70
2019-04-26T03:52:46.038Z,87.70
2019-04-26T03:55:28.388Z,87.70
2019-04-26T03:58:13.471Z,87.70
2019-04-26T04:00:49.458Z,88.20
2019-04-26T04:03:26.562Z,88.30
2019-04-26T04:05:56.052Z,88.20
2019-04-26T04:08:33.620Z,88.00
2019-04-26T04:11:05.247Z,87.90
2019-04-26T04:13:50.486Z,88.20
2019-04-26T04:16:37.035Z,88.10
2019-04-26T04:19:34.813Z,88.00
2019-04-26T04:22:09.395Z,87.80
2019-04-26T04:24:45.556Z,87.60
2019-04-26T04:27:23.569Z,87.10
2019-04-26T04:30:16.206Z,87.10
2019-04-26T04:33:10.679Z,86.90
2019-04-26T04:35:43.835Z,86.80
2019-04-26T04:38:33.942Z,86.50
2019-04-26T04:41:29.952Z,86.20
2019-04-26T04:44:03.251Z,85.80
2019-04-26T04:46:39.610Z,85.20
2019-04-26T04:49:24.791Z,84.80
2019-04-26T04:52:22.089Z,84.50
2019-04-26T04:55:14.535Z,84.40
2019-04-26T04:57:50.171Z,84.10
2019-04-26T05:00:32.435Z,83.60
2019-04-26T05:03:26.582Z,83.40
2019-04-26T05:06:07.217Z,83.30
2019-04-26T05:08:38.908Z,83.00
2019-04-26T05:11:30.094Z,83.00
2019-04-26T05:14:19.848Z,82.60
2019-04-26T05:17:03.389Z,82.40
2019-04-26T05:19:40.859Z,82.90
2019-04-26T05:22:34.747Z,82.70
2019-04-26T05:25:36.835Z,81.90
2019-04-26T05:28:29.427Z,82.00
2019-04-26T05:31:34.538Z,81.40
2019-04-26T05:34:30.363Z,81.00
2019-04-26T05:37:08.074Z,80.80
2019-04-26T05:39:47.724Z,80.10
2019-04-26T05:43:07.444Z,79.80
2019-04-26T05:45:52.340Z,79.80
2019-04-26T05:48:46.741Z,79.10
2019-04-26T05:51:28.746Z,78.80
2019-04-26T05:54:45.378Z,78.40
2019-04-26T05:57:42.704Z,78.00
2019-04-26T06:00:30.477Z,77.40
2019-04-26T06:03:38.993Z,77.10
2019-04-26T06:06:30.040Z,76.50
2019-04-26T06:09:18.010Z,76.50
2019-04-26T06:12:12.442Z,76.40
2019-04-26T06:15:03.242Z,76.10
2019-04-26T06:17:57.311Z,75.80
2019-04-26T06:20:41.225Z,75.60
2019-04-26T06:23:30.979Z,75.20
2019-04-26T06:26:37.933Z,74.80
2019-04-26T06:29:18.456Z,74.30
2019-04-26T06:31:55.994Z,73.50
2019-04-26T06:34:30.632Z,73.20
2019-04-26T06:37:06.697Z,72.90
2019-04-26T06:39:53.393Z,73.00
2019-04-26T06:42:43.794Z,72.40
2019-04-26T06:45:19.658Z,72.10
2019-04-26T06:48:28.535Z,72.10
2019-04-26T06:51:24.277Z,72.10
2019-04-26T06:53:48.226Z,71.40
2019-04-26T06:56:24.283Z,71.00
2019-04-26T06:59:21.607Z,71.00
2019-04-26T07:01:56.560Z,71.10
2019-04-26T07:05:02.916Z,71.00
2019-04-26T07:07:52.928Z,71.00
2019-04-26T07:10:41.108Z,70.80
2019-04-26T07:13:23.253Z,70.30
2019-04-26T07:16:17.988Z,69.80
2019-04-26T07:18:39.982Z,69.80
2019-04-26T07:21:18.181Z,69.30
2019-04-26T07:24:20.126Z,69.00
2019-04-26T07:27:13.137Z,69.00
2019-04-26T07:30:04.053Z,68.10
2019-04-26T07:32:47.918Z,67.90
2019-04-26T07:35:34.555Z,67.40
2019-04-26T07:38:28.859Z,67.00
2019-04-26T07:41:29.280Z,66.90
2019-04-26T07:44:23.500Z,66.30
2019-04-26T07:46:55.200Z,65.90
2019-04-26T07:49:52.507Z,65.70
2019-04-26T07:52:27.110Z,65.70
2019-04-26T07:55:30.540Z,65.10
2019-04-26T07:58:27.761Z,64.20
2019-04-26T08:01:14.049Z,64.70
2019-04-26T08:03:50.401Z,63.50
2019-04-26T08:06:21.743Z,64.00
2019-04-26T08:08:55.534Z,63.50
2019-04-26T08:11:35.899Z,63.50
2019-04-26T08:14:10.606Z,62.90
2019-04-26T08:17:06.423Z,62.00
2019-04-26T08:19:38.518Z,61.50
2019-04-26T08:22:18.305Z,60.90
2019-04-26T08:24:37.479Z,60.80
2019-04-26T08:27:23.249Z,60.60
2019-04-26T08:29:50.585Z,60.60
2019-04-26T08:32:23.858Z,60.50
2019-04-26T08:34:55.588Z,60.00
2019-04-26T08:37:42.459Z,59.90
2019-04-26T08:40:16.398Z,59.30
2019-04-26T08:42:43.006Z,59.10
2019-04-26T08:45:14.945Z,58.70
2019-04-26T08:47:46.064Z,58.00
2019-04-26T08:50:17.692Z,57.60
2019-04-26T08:52:46.926Z,57.30
2019-04-26T08:55:15.309Z,57.10
2019-04-26T08:57:43.708Z,56.90
2019-04-26T09:00:32.230Z,56.20
2019-04-26T09:03:11.264Z,56.10
2019-04-26T09:05:36.541Z,55.60
2019-04-26T09:08:04.938Z,55.90
2019-04-26T09:10:33.320Z,55.90
2019-04-26T09:13:01.699Z,55.20
2019-04-26T09:15:51.559Z,54.30
2019-04-26T09:18:19.938Z,54.00
2019-04-26T09:20:48.346Z,53.80
2019-04-26T09:23:24.269Z,53.30
2019-04-26T09:25:59.443Z,52.90
2019-04-26T09:28:28.738Z,52.60
2019-04-26T09:31:07.730Z,51.30
2019-04-26T09:33:40.589Z,50.00
2019-04-26T09:36:09.551Z,49.70
2019-04-26T09:38:37.930Z,49.20
2019-04-26T09:41:06.322Z,48.50
2019-04-26T09:43:36.404Z,47.70
2019-04-26T09:46:21.326Z,48.00
2019-04-26T09:48:54.104Z,47.80
2019-04-26T09:51:22.569Z,47.60
2019-04-26T09:53:50.978Z,47.10
2019-04-26T09:56:19.383Z,46.10
2019-04-26T09:58:47.789Z,46.40
2019-04-26T10:01:19.649Z,45.60
2019-04-26T10:03:46.236Z,46.00
2019-04-26T10:06:14.629Z,45.30
2019-04-26T10:08:43.388Z,43.60
2019-04-26T10:11:14.657Z,43.30
2019-04-26T10:13:50.198Z,44.50
2019-04-26T10:16:22.886Z,44.20
2019-04-26T10:18:54.469Z,44.40
2019-04-26T10:21:23.118Z,43.40
2019-04-26T10:23:51.500Z,43.90
2019-04-26T10:26:23.302Z,43.10
2019-04-26T10:28:50.611Z,42.80
2019-04-26T10:31:20.423Z,43.20
2019-04-26T10:33:48.811Z,43.30
2019-04-26T10:36:17.184Z,42.20
2019-04-26T10:38:45.567Z,41.50
2019-04-26T10:41:14.034Z,41.40
2019-04-26T10:43:43.762Z,41.50
2019-04-26T10:46:12.391Z,39.60
2019-04-26T10:48:41.400Z,40.40
2019-04-26T10:51:09.943Z,40.30
2019-04-26T10:53:42.673Z,39.40
2019-04-26T10:56:29.004Z,39.50
2019-04-26T10:59:06.003Z,39.60
2019-04-26T11:01:34.937Z,39.00
2019-04-26T11:04:03.318Z,39.30
2019-04-26T11:06:31.698Z,38.60
2019-04-26T11:09:00.086Z,39.00
2019-04-26T11:11:28.638Z,38.40
2019-04-26T11:13:57.619Z,38.90
2019-04-26T11:16:26.449Z,38.10
2019-04-26T11:18:57.261Z,36.50
2019-04-26T11:21:24.934Z,35.40
2019-04-26T11:23:53.342Z,34.20
2019-04-26T11:26:21.756Z,33.00
2019-04-26T11:28:51.428Z,32.50
2019-04-26T11:31:23.436Z,32.40
2019-04-26T11:33:50.672Z,32.20
2019-04-26T11:36:19.402Z,30.50
2019-04-26T11:38:47.803Z,31.20
2019-04-26T11:41:16.189Z,30.00
2019-04-26T11:43:44.573Z,29.80
2019-04-26T11:46:12.990Z,31.00
2019-04-26T11:48:41.375Z,29.90
2019-04-26T11:51:09.778Z,28.80
2019-04-26T11:53:40.459Z,28.80
2019-04-26T11:56:08.199Z,29.40
2019-04-26T11:58:36.578Z,28.70
2019-04-26T12:01:06.611Z,27.60
2019-04-26T12:03:34.987Z,27.70
2019-04-26T12:06:05.029Z,26.80
2019-04-26T12:08:57.445Z,26.70
2019-04-26T12:11:31.613Z,26.70
2019-04-26T12:13:59.470Z,26.00
2019-04-26T12:16:26.083Z,26.60
2019-04-26T12:18:54.516Z,27.40
2019-04-26T12:21:22.929Z,25.90
2019-04-26T12:23:54.921Z,26.20
2019-04-26T12:26:22.993Z,25.50
2019-04-26T12:28:51.462Z,24.90
2019-04-26T12:31:19.813Z,24.30
2019-04-26T12:33:48.214Z,25.00
2019-04-26T12:36:16.673Z,23.40
2019-04-26T12:38:45.050Z,24.00
2019-04-26T12:41:17.179Z,22.60
2019-04-26T12:43:44.351Z,22.90
2019-04-26T12:46:27.189Z,23.20
2019-04-26T12:48:56.244Z,24.10
2019-04-26T12:51:24.603Z,22.20
2019-04-26T12:53:53.142Z,22.50
2019-04-26T12:56:21.590Z,23.10
2019-04-26T12:58:51.219Z,22.00
2019-04-26T13:01:20.494Z,23.00
2019-04-26T13:04:05.567Z,21.70
2019-04-26T13:06:36.972Z,22.80
2019-04-26T13:09:17.298Z,21.80
2019-04-26T13:11:48.972Z,20.70
2019-04-26T13:14:19.270Z,22.00
2019-04-26T13:17:01.122Z,20.60
2019-04-26T13:19:28.298Z,22.50
2019-04-26T13:21:56.708Z,21.30
2019-04-26T13:24:25.094Z,21.00
2019-04-26T13:26:53.478Z,21.20
2019-04-26T13:29:21.850Z,21.40
2019-04-26T13:31:50.372Z,21.70
2019-04-26T13:34:18.747Z,22.30
2019-04-26T13:36:47.120Z,22.60
2019-04-26T13:39:17.815Z,22.10
2019-04-26T13:41:45.549Z,22.10
2019-04-26T13:44:13.934Z,22.50
2019-04-26T13:47:03.655Z,21.90
2019-04-26T13:49:32.164Z,22.20
2019-04-26T13:52:00.534Z,23.10
2019-04-26T13:54:29.110Z,24.40
2019-04-26T13:56:57.481Z,25.00
2019-04-26T13:59:28.096Z,25.50
2019-04-26T14:01:55.958Z,25.50
2019-04-26T14:04:24.394Z,26.50
2019-04-26T14:06:53.292Z,26.70
2019-04-26T14:09:21.787Z,27.70
2019-04-26T14:11:50.214Z,27.80
2019-04-26T14:14:18.658Z,27.50
2019-04-26T14:16:47.395Z,28.10
2019-04-26T14:19:16.904Z,28.00
2019-04-26T14:21:45.646Z,28.20
2019-04-26T14:24:31.878Z,27.90
2019-04-26T14:27:01.953Z,28.20
2019-04-26T14:29:32.408Z,28.30
2019-04-26T14:32:00.426Z,28.20
2019-04-26T14:34:29.385Z,28.10
2019-04-26T14:37:06.383Z,28.10
2019-04-26T14:39:35.274Z,28.10
2019-04-26T14:41:58.443Z,28.40
2019-04-26T14:44:30.756Z,29.10
2019-04-26T14:46:57.902Z,28.90
2019-04-26T14:49:38.539Z,28.60
2019-04-26T14:51:56.544Z,28.70
2019-04-26T14:54:24.974Z,28.60
2019-04-26T14:56:53.397Z,29.20
2019-04-26T14:59:43.479Z,29.30
2019-04-26T15:02:13.262Z,29.20
2019-04-26T15:04:43.241Z,29.40
2019-04-26T15:07:12.219Z,30.20
2019-04-26T15:09:42.791Z,31.70
2019-04-26T15:12:14.103Z,32.70
2019-04-26T15:14:42.242Z,33.60
2019-04-26T15:17:12.451Z,33.50
2019-04-26T15:19:45.937Z,33.10
2019-04-26T15:22:12.193Z,33.40
2019-04-26T15:24:42.168Z,34.30
2019-04-26T15:27:10.618Z,34.40
2019-04-26T15:29:39.102Z,34.60
2019-04-26T15:32:07.500Z,35.20
2019-04-26T15:34:35.874Z,35.60
2019-04-26T15:37:04.253Z,36.30
2019-04-26T15:39:34.479Z,36.50
2019-04-26T15:42:07.117Z,36.20
2019-04-26T15:44:39.958Z,36.40
2019-04-26T15:47:09.973Z,35.40
2019-04-26T15:49:40.065Z,35.40
2019-04-26T15:52:08.488Z,35.70
2019-04-26T15:54:36.860Z,35.10
2019-04-26T15:57:06.630Z,33.80
2019-04-26T15:59:35.272Z,33.60
2019-04-26T16:02:03.639Z,33.20
2019-04-26T16:04:32.443Z,32.10
2019-04-26T16:07:02.478Z,32.60
2019-04-26T16:09:32.506Z,32.50
2019-04-26T16:12:03.363Z,33.30
2019-04-26T16:14:36.481Z,34.20
2019-04-26T16:17:03.259Z,34.00
2019-04-26T16:19:31.458Z,35.00
2019-04-26T16:21:59.858Z,34.40
2019-04-26T16:24:29.134Z,34.70
2019-04-26T16:26:57.640Z,35.30
2019-04-26T16:29:27.650Z,35.80
2019-04-26T16:31:58.553Z,37.00
2019-04-26T16:34:28.575Z,37.70
2019-04-26T16:36:56.934Z,38.40
2019-04-26T16:44:45.053Z,39.80
2019-04-26T16:47:13.287Z,40.20
2019-04-26T16:49:46.496Z,41.20
2019-04-26T16:52:14.164Z,41.50
2019-04-26T16:54:42.762Z,41.90
2019-04-26T16:57:12.431Z,42.30
2019-04-26T16:59:47.657Z,43.10
2019-04-26T17:00:30.719Z,39.50
2019-04-26T17:02:15.627Z,43.40
2019-04-26T17:04:43.399Z,43.30
2019-04-26T17:07:13.449Z,43.80
2019-04-26T17:09:57.040Z,44.20
2019-04-26T17:12:15.059Z,44.30
2019-04-26T17:14:47.749Z,44.60
2019-04-26T17:17:14.006Z,45.00
2019-04-26T17:19:43.232Z,45.40
2019-04-26T17:22:26.027Z,45.50
2019-04-26T17:25:04.786Z,46.00
2019-04-26T17:27:33.191Z,46.30
2019-04-26T17:30:02.920Z,46.70
2019-04-26T17:32:31.655Z,47.10
2019-04-26T17:35:04.874Z,47.30
2019-04-26T17:37:30.510Z,47.60
2019-04-26T17:40:00.851Z,47.90
2019-04-26T17:42:36.094Z,48.20
2019-04-26T17:45:03.991Z,48.00
2019-04-26T17:47:33.009Z,48.40
2019-04-26T17:50:04.567Z,48.80
2019-04-26T17:52:36.056Z,49.10
2019-04-26T17:55:01.515Z,49.20
2019-04-26T17:57:34.865Z,49.60
2019-04-26T18:00:07.344Z,49.60
2019-04-26T18:02:41.200Z,50.00
2019-04-26T18:05:03.237Z,50.10
2019-04-26T18:07:43.649Z,50.40
2019-04-26T18:10:02.318Z,50.50
2019-04-26T18:12:32.657Z,50.80
2019-04-26T18:15:06.142Z,51.00
2019-04-26T18:17:36.455Z,50.80
2019-04-26T18:20:18.870Z,51.30
2019-04-26T18:22:54.594Z,51.30
2019-04-26T18:25:23.423Z,51.60
2019-04-26T18:27:53.494Z,51.80
2019-04-26T18:30:23.634Z,52.10
2019-04-26T18:32:52.330Z,52.10
2019-04-26T18:35:20.724Z,52.40
2019-04-26T18:37:49.156Z,52.20
2019-04-26T18:40:20.391Z,53.10
2019-04-26T18:42:47.556Z,52.40
2019-04-26T18:45:21.432Z,52.80
2019-04-26T18:47:46.134Z,53.60
2019-04-26T18:50:14.907Z,54.00
2019-04-26T18:52:56.511Z,53.50
2019-04-26T18:55:29.015Z,53.60
2019-04-26T18:58:01.519Z,53.80
2019-04-26T19:00:29.013Z,53.70
2019-04-26T19:02:59.939Z,53.70
2019-04-26T19:05:30.069Z,54.10
2019-04-26T19:07:58.056Z,54.30
2019-04-26T19:10:29.334Z,54.10
2019-04-26T19:13:00.130Z,53.80
2019-04-26T19:15:33.665Z,54.10
2019-04-26T19:18:19.459Z,54.50
2019-04-26T19:20:49.639Z,54.70
2019-04-26T19:23:18.015Z,54.70
2019-04-26T19:25:46.390Z,55.30
2019-04-26T19:28:14.817Z,55.30
2019-04-26T19:30:49.032Z,55.40
2019-04-26T19:33:16.764Z,55.60
2019-04-26T19:35:47.097Z,55.50
2019-04-26T19:38:14.859Z,55.80
2019-04-26T19:40:47.615Z,55.60
2019-04-26T19:43:13.743Z,55.60
2019-04-26T19:45:47.053Z,55.20
2019-04-26T19:48:32.813Z,55.20
2019-04-26T19:51:19.178Z,55.10
2019-04-26T19:53:54.158Z,54.50
2019-04-26T19:56:27.544Z,54.10
2019-04-26T19:58:57.436Z,54.10
2019-04-26T20:01:24.983Z,54.00
2019-04-26T20:03:55.250Z,54.10
2019-04-26T20:06:26.660Z,54.10
2019-04-26T20:08:53.850Z,54.30
2019-04-26T20:11:22.614Z,54.70
2019-04-26T20:13:55.115Z,54.90
2019-04-26T20:16:22.642Z,55.00
2019-04-26T20:18:52.412Z,55.30
2019-04-26T20:21:21.724Z,55.50
2019-04-26T20:23:52.664Z,55.70
2019-04-26T20:26:20.453Z,56.00
2019-04-26T20:28:48.832Z,56.20
2019-04-26T20:31:21.865Z,56.70
2019-04-26T20:33:50.291Z,57.00
2019-04-26T20:36:18.665Z,57.20
2019-04-26T20:38:47.587Z,57.60
2019-04-26T20:41:16.402Z,57.90
2019-04-26T20:43:52.366Z,58.00
2019-04-26T20:46:15.828Z,58.30
2019-04-26T20:48:45.138Z,58.30
2019-04-26T20:51:13.614Z,58.60
2019-04-26T20:53:43.835Z,58.80
2019-04-26T20:56:18.328Z,58.90
2019-04-26T20:58:45.871Z,58.80
2019-04-26T21:01:14.180Z,59.10
2019-04-26T21:03:45.893Z,59.20
2019-04-26T21:06:12.749Z,59.40
2019-04-26T21:08:42.411Z,59.60
2019-04-26T21:11:11.193Z,59.70
2019-04-26T21:13:41.502Z,59.80
2019-04-26T21:16:14.747Z,60.00
2019-04-26T21:18:43.564Z,60.40
2019-04-26T21:21:11.876Z,60.10
2019-04-26T21:23:42.234Z,60.50
2019-04-26T21:26:21.705Z,60.30
2019-04-26T21:28:57.543Z,60.60
2019-04-26T21:31:36.177Z,61.50
2019-04-26T21:34:15.295Z,62.20
2019-04-26T21:36:46.094Z,61.90
2019-04-26T21:39:19.041Z,61.20
2019-04-26T21:41:49.290Z,61.70
2019-04-26T21:44:17.675Z,61.80
2019-04-26T21:46:49.726Z,62.00
2019-04-26T21:49:20.893Z,62.70
2019-04-26T21:51:51.330Z,62.60
2019-04-26T21:54:19.129Z,62.90
2019-04-26T21:56:49.747Z,63.60
2019-04-26T21:59:18.241Z,63.90
2019-04-26T22:01:48.166Z,64.10
2019-04-26T22:04:17.844Z,64.30
2019-04-26T22:06:46.294Z,63.90
2019-04-26T22:09:34.965Z,64.60
2019-04-26T22:11:59.669Z,64.50
2019-04-26T22:14:29.599Z,64.80
2019-04-26T22:17:02.053Z,65.40
2019-04-26T22:19:32.480Z,66.00
2019-04-26T22:22:04.214Z,66.00
2019-04-26T22:24:37.390Z,65.90
2019-04-26T22:27:05.773Z,65.80
2019-04-26T22:29:34.155Z,66.00
2019-04-26T22:32:03.686Z,65.80
2019-04-26T22:34:32.602Z,65.40
2019-04-26T22:37:01.356Z,65.00
2019-04-26T22:39:32.542Z,65.60
2019-04-26T22:42:02.720Z,65.70
2019-04-26T22:44:34.388Z,65.20
2019-04-26T22:47:14.022Z,65.30
2019-04-26T22:49:45.194Z,66.00
2019-04-26T22:52:16.251Z,66.30
2019-04-26T22:54:46.558Z,65.40
2019-04-26T22:57:16.006Z,65.90
2019-04-26T22:59:49.514Z,66.40
2019-04-26T23:02:18.520Z,66.90
2019-04-26T23:04:44.869Z,66.40
2019-04-26T23:07:18.427Z,65.70
2019-04-26T23:09:47.421Z,65.80
2019-04-26T23:12:33.859Z,66.70
2019-04-26T23:15:07.114Z,66.80
2019-04-26T23:17:53.582Z,66.90
2019-04-26T23:20:25.043Z,67.40
2019-04-26T23:22:53.698Z,67.40
2019-04-26T23:25:23.733Z,67.10
2019-04-26T23:27:55.132Z,67.20
2019-04-26T23:30:23.122Z,67.50
2019-04-26T23:32:52.199Z,67.50
2019-04-26T23:35:21.808Z,67.10
2019-04-26T23:37:50.181Z,68.00
2019-04-26T23:40:20.556Z,68.40
2019-04-26T23:42:51.557Z,68.70
2019-04-26T23:45:18.639Z,67.70
2019-04-26T23:47:47.042Z,69.20
2019-04-26T23:50:15.414Z,68.90
2019-04-26T23:52:43.795Z,69.40
2019-04-26T23:55:13.476Z,69.50
2019-04-26T23:57:43.505Z,70.40
